Time;durP1;ratioP1;P1;durP2;ratioP2;P2;SDS_P1;SDS_P2;PMS_P1;PMS_P2;Temp;Humidity;BMP_temperature;BMP_pressure;BME280_temperature;BME280_humidity;BME280_pressure;Samples;Min_cycle;Max_cycle;Signal;HPM_P1;HPM_P2
2022/09/11 00:02:21;;;;;;;8.07;5.35;;;;;;;20.54;79.33;94514.84;4982482;28;20198;-78
2022/09/11 00:04:48;;;;;;;6.40;5.65;;;;;;;20.70;79.38;94536.19;4970391;28;20217;-77
2022/09/11 00:07:15;;;;;;;7.35;5.38;;;;;;;20.63;79.51;94528.41;4970579;28;20190;-80
2022/09/11 00:09:42;;;;;;;13.75;5.35;;;;;;;20.75;78.97;94528.59;4970614;28;20225;-79
2022/09/11 00:12:09;;;;;;;7.93;5.28;;;;;;;20.68;79.51;94544.22;4970578;28;20198;-78
2022/09/11 00:14:35;;;;;;;6.95;5.22;;;;;;;20.34;79.62;94488.09;4971241;28;20193;-78
2022/09/11 00:17:02;;;;;;;6.00;5.40;;;;;;;20.57;79.94;94538.84;4989641;28;20193;-78
2022/09/11 00:19:30;;;;;;;7.38;4.97;;;;;;;20.53;79.92;94541.03;4990432;28;20192;-77
2022/09/11 00:21:57;;;;;;;5.15;4.65;;;;;;;20.50;80.13;94537.03;4990157;28;20189;-77
2022/09/11 00:24:24;;;;;;;9.45;5.40;;;;;;;20.46;80.15;94540.22;4976145;28;20193;-77
2022/09/11 00:26:51;;;;;;;6.47;4.97;;;;;;;20.41;80.19;94540.81;4993217;28;20205;-77
2022/09/11 00:29:18;;;;;;;6.40;4.70;;;;;;;20.40;80.54;94543.63;4993333;28;20213;-78
2022/09/11 00:31:45;;;;;;;8.40;5.55;;;;;;;20.33;81.30;94537.63;4993125;28;20193;-77
2022/09/11 00:34:12;;;;;;;6.88;5.00;;;;;;;20.27;81.42;94527.03;4993431;28;20658;-78
2022/09/11 00:36:42;;;;;;;6.83;5.20;;;;;;;20.27;81.38;94536.63;4993002;28;20225;-78
2022/09/11 00:39:10;;;;;;;5.18;4.68;;;;;;;20.29;80.94;94539.81;4985438;28;20208;-78
2022/09/11 00:41:40;;;;;;;7.70;4.88;;;;;;;20.26;80.94;94535.06;4992929;28;20594;-78
2022/09/11 00:44:28;;;;;;;6.60;4.70;;;;;;;20.23;81.13;94536.25;4993181;28;20668;-79
2022/09/11 00:46:57;;;;;;;6.53;5.38;;;;;;;20.13;81.24;94532.47;4993164;28;20295;-78
2022/09/11 00:49:27;;;;;;;6.38;5.28;;;;;;;20.18;81.59;94530.84;4992761;28;20220;-79
2022/09/11 00:52:00;;;;;;;5.63;5.13;;;;;;;20.14;81.66;94540.03;4992936;28;20193;-77
2022/09/11 00:54:31;;;;;;;6.25;5.13;;;;;;;19.75;81.76;94484.53;4993080;28;20661;-77
2022/09/11 00:57:02;;;;;;;6.00;5.00;;;;;;;20.09;81.81;94545.03;4992758;28;20188;-78
2022/09/11 00:59:33;;;;;;;6.30;5.20;;;;;;;20.05;81.89;94539.44;4993258;28;20255;-78
2022/09/11 01:02:01;;;;;;;5.68;4.50;;;;;;;20.01;82.02;94530.47;4992811;28;20189;-78
2022/09/11 01:04:28;;;;;;;6.30;4.77;;;;;;;20.00;82.40;94535.84;4993243;28;20193;-77
2022/09/11 01:06:58;;;;;;;7.73;5.37;;;;;;;19.98;82.44;94538.63;4992593;28;20197;-76
2022/09/11 01:09:27;;;;;;;6.53;4.77;;;;;;;19.90;82.47;94522.47;4992505;28;20221;-78
2022/09/11 01:12:01;;;;;;;5.93;5.17;;;;;;;20.03;81.96;94530.25;4992545;28;20193;-79
2022/09/11 01:14:35;;;;;;;6.33;4.67;;;;;;;20.03;81.43;94535.44;4992628;28;20195;-79
2022/09/11 01:17:18;;;;;;;4.67;3.97;;;;;;;20.00;81.57;94533.25;4992151;28;20588;-77
2022/09/11 01:20:04;;;;;;;6.67;4.67;;;;;;;20.08;81.24;94540.03;4992649;28;20228;-78
2022/09/11 01:22:50;;;;;;;5.53;5.03;;;;;;;20.01;81.19;94540.03;4992462;28;20732;-77
2022/09/11 01:25:26;;;;;;;10.00;4.28;;;;;;;20.01;81.20;94540.84;4992319;28;20283;-78
2022/09/11 01:27:56;;;;;;;5.40;4.88;;;;;;;19.87;81.65;94528.88;4992532;28;20189;-77
2022/09/11 01:30:28;;;;;;;7.72;4.47;;;;;;;19.82;82.16;94528.66;4991916;28;20231;-77
2022/09/11 01:33:21;;;;;;;6.27;4.80;;;;;;;19.79;81.69;94519.47;4992087;28;20216;-78
2022/09/11 01:35:56;;;;;;;6.50;4.67;;;;;;;19.77;81.96;94523.25;4992074;28;20283;-79
2022/09/11 01:38:32;;;;;;;4.30;3.90;;;;;;;19.71;82.05;94511.88;4992213;28;20295;-79
2022/09/11 01:41:06;;;;;;;6.07;4.47;;;;;;;19.79;81.94;94524.66;4992047;28;20208;-78
2022/09/11 01:43:39;;;;;;;5.20;4.40;;;;;;;19.80;81.85;94523.66;4992319;28;20197;-78
2022/09/11 01:46:09;;;;;;;5.40;4.30;;;;;;;19.80;81.70;94521.06;4991816;28;20659;-79
2022/09/11 01:48:40;;;;;;;4.35;3.95;;;;;;;19.85;81.31;94519.66;4993458;28;20227;-77
2022/09/11 01:51:14;;;;;;;4.35;4.05;;;;;;;19.78;81.24;94504.09;4992142;28;20192;-77
2022/09/11 01:53:45;;;;;;;6.25;3.78;;;;;;;19.86;81.40;94509.09;4992170;28;20193;-79
2022/09/11 01:56:20;;;;;;;5.70;4.43;;;;;;;19.93;80.78;94506.50;4992236;28;20185;-78
2022/09/11 01:58:54;;;;;;;21.30;4.53;;;;;;;19.92;81.05;94500.50;4991932;28;20198;-78
2022/09/11 02:01:27;;;;;;;5.40;4.00;;;;;;;19.94;81.04;94501.09;4991871;28;20189;-79
2022/09/11 02:04:01;;;;;;;5.03;3.70;;;;;;;20.00;80.71;94495.13;4991514;28;20203;-78
2022/09/11 02:06:33;;;;;;;4.00;3.70;;;;;;;19.98;80.76;94493.72;4991184;28;20692;-78
2022/09/11 02:09:06;;;;;;;7.17;4.00;;;;;;;20.01;80.76;94490.72;4991157;28;20229;-78
2022/09/11 02:11:39;;;;;;;4.53;4.07;;;;;;;20.00;81.26;94486.53;4991299;28;20578;-78
2022/09/11 02:14:13;;;;;;;5.50;3.80;;;;;;;20.06;80.41;94488.31;4991270;28;20188;-78
2022/09/11 02:16:48;;;;;;;6.32;4.13;;;;;;;20.13;80.15;94489.13;4991074;28;20312;-78
2022/09/11 02:19:18;;;;;;;4.32;3.92;;;;;;;20.10;80.37;94483.53;4991198;28;20228;-78
2022/09/11 02:21:47;;;;;;;4.33;3.90;;;;;;;19.91;81.15;94478.16;4991418;28;20200;-78
2022/09/11 02:24:14;;;;;;;4.88;3.90;;;;;;;19.82;81.23;94457.78;4991275;28;20200;-77
2022/09/11 02:26:48;;;;;;;4.33;3.93;;;;;;;19.95;81.50;94487.13;4991210;28;20185;-78
2022/09/11 02:29:16;;;;;;;7.73;4.10;;;;;;;20.00;81.71;94481.34;4990728;28;20240;-77
2022/09/11 02:31:43;;;;;;;8.43;4.30;;;;;;;19.93;82.26;94483.13;4990869;28;20201;-78
2022/09/11 02:34:11;;;;;;;7.73;4.87;;;;;;;19.89;82.95;94482.72;4990452;28;20186;-78
2022/09/11 02:37:02;;;;;;;5.57;5.00;;;;;;;19.91;82.52;94487.75;4990737;28;20251;-77
2022/09/11 02:39:48;;;;;;;7.70;4.50;;;;;;;19.84;82.82;94485.13;4973074;28;20193;-79
2022/09/11 02:42:27;;;;;;;10.85;4.40;;;;;;;19.92;83.13;94487.53;4990634;28;20195;-78
2022/09/11 02:45:05;;;;;;;8.53;5.20;;;;;;;19.84;83.92;94489.53;4990783;28;20207;-76
2022/09/11 02:47:42;;;;;;;6.03;4.80;;;;;;;19.81;84.36;94493.31;4989998;28;20200;-77
2022/09/11 02:50:20;;;;;;;5.53;4.77;;;;;;;19.82;84.24;94496.69;4990673;28;20679;-77
2022/09/11 02:52:53;;;;;;;6.87;5.33;;;;;;;19.76;84.87;94486.13;4991099;28;20197;-78
2022/09/11 02:55:24;;;;;;;8.03;5.10;;;;;;;19.79;84.72;94488.31;4990373;28;20716;-76
2022/09/11 02:57:59;;;;;;;5.67;5.07;;;;;;;19.75;84.84;94494.13;4990539;28;20649;-77
2022/09/11 03:00:28;;;;;;;17.63;5.47;;;;;;;19.54;85.09;94454.34;4972883;28;20279;-77
2022/09/11 03:02:55;;;;;;;5.90;5.10;;;;;;;19.71;85.28;94480.72;4990397;28;20197;-78
2022/09/11 03:05:22;;;;;;;5.33;4.60;;;;;;;19.78;85.00;94493.72;4990394;28;20640;-78
2022/09/11 03:07:49;;;;;;;5.63;5.10;;;;;;;19.75;84.83;94494.91;4990303;28;20204;-78
2022/09/11 03:10:16;;;;;;;6.37;5.37;;;;;;;19.54;85.44;94466.53;4990258;28;20322;-79
2022/09/11 03:12:42;;;;;;;5.67;5.17;;;;;;;19.64;86.02;94495.50;4990369;28;20192;-78
2022/09/11 03:15:10;;;;;;;6.33;5.27;;;;;;;19.59;86.10;94500.44;4990062;28;20233;-79
2022/09/11 03:17:39;;;;;;;6.67;5.67;;;;;;;19.61;86.07;94506.28;4989835;28;20877;-78
2022/09/11 03:20:07;;;;;;;5.60;5.10;;;;;;;19.52;86.31;94507.44;4990523;28;20197;-78
2022/09/11 03:22:33;;;;;;;5.40;5.00;;;;;;;19.52;86.80;94516.03;4989697;28;20646;-77
2022/09/11 03:25:00;;;;;;;7.07;6.37;;;;;;;19.49;87.09;94513.81;4990277;28;20200;-78
2022/09/11 03:27:27;;;;;;;7.37;6.67;;;;;;;19.45;87.22;94511.81;4990214;28;20189;-77
2022/09/11 03:29:55;;;;;;;7.93;7.13;;;;;;;19.42;87.11;94507.00;4990081;28;20329;-78
2022/09/11 03:32:22;;;;;;;8.70;6.47;;;;;;;19.16;87.50;94474.03;4989713;28;20296;-77
2022/09/11 03:34:51;;;;;;;6.67;6.07;;;;;;;19.33;87.29;94501.19;4990208;28;20220;-79
2022/09/11 03:37:17;;;;;;;7.03;5.57;;;;;;;19.41;87.88;94523.56;4990047;28;20292;-77
2022/09/11 03:39:47;;;;;;;6.27;5.00;;;;;;;19.38;87.98;94516.97;4990004;28;20197;-78
2022/09/11 03:42:13;;;;;;;6.20;5.60;;;;;;;19.32;88.42;94530.72;4989773;28;20197;-78
2022/09/11 03:44:44;;;;;;;6.07;5.53;;;;;;;19.26;88.74;94526.34;4990009;28;20201;-80
2022/09/11 03:47:11;;;;;;;6.00;5.40;;;;;;;19.12;88.65;94515.09;4990165;28;20193;-78
2022/09/11 03:49:39;;;;;;;5.47;5.07;;;;;;;19.26;88.45;94523.75;4990895;28;20311;-79
2022/09/11 03:52:07;;;;;;;6.90;5.17;;;;;;;19.26;88.64;94534.91;4990744;28;20712;-78
2022/09/11 03:54:34;;;;;;;7.07;5.73;;;;;;;19.15;89.16;94525.09;4990174;28;20192;-78
2022/09/11 03:57:01;;;;;;;9.03;6.20;;;;;;;19.02;89.51;94512.09;4990483;28;20197;-78
2022/09/11 03:59:28;;;;;;;6.00;5.40;;;;;;;19.13;89.56;94531.44;4993556;28;20204;-79
2022/09/11 04:01:54;;;;;;;6.60;5.57;;;;;;;19.11;89.76;94541.22;4993620;28;20196;-79
2022/09/11 04:04:22;;;;;;;12.53;5.87;;;;;;;19.07;89.94;94543.41;4993804;28;20279;-78
2022/09/11 04:06:48;;;;;;;6.60;5.80;;;;;;;19.06;89.76;94528.84;4994153;28;20223;-79
2022/09/11 04:09:17;;;;;;;6.60;6.00;;;;;;;18.87;89.93;94501.03;4993275;28;20189;-80
2022/09/11 04:11:44;;;;;;;6.97;5.73;;;;;;;19.03;90.45;94529.22;4993664;28;20641;-79
2022/09/11 04:14:11;;;;;;;7.33;6.17;;;;;;;18.98;90.30;94535.00;4993734;28;20208;-78
2022/09/11 04:16:40;;;;;;;9.90;6.20;;;;;;;18.90;90.18;94524.78;4993249;28;20647;-77
2022/09/11 04:19:07;;;;;;;7.83;5.87;;;;;;;19.02;90.36;94541.38;4993810;28;20221;-78
2022/09/11 04:21:34;;;;;;;6.73;6.00;;;;;;;19.08;89.60;94541.59;4992971;28;20212;-78
2022/09/11 04:24:01;;;;;;;8.03;5.87;;;;;;;19.07;89.80;94538.22;4992812;28;20260;-79
2022/09/11 04:26:32;;;;;;;7.27;6.03;;;;;;;18.96;90.26;94525.81;4993229;28;20193;-77
2022/09/11 04:29:00;;;;;;;8.40;6.30;;;;;;;18.96;90.84;94541.38;4993244;28;20203;-79
2022/09/11 04:31:27;;;;;;;7.07;5.93;;;;;;;18.81;90.65;94518.16;4993111;28;20260;-78
2022/09/11 04:33:54;;;;;;;5.60;5.10;;;;;;;18.89;89.95;94527.59;4993272;28;20279;-78
2022/09/11 04:36:23;;;;;;;6.50;5.40;;;;;;;18.90;90.45;94531.75;4992814;28;20200;-78
2022/09/11 04:38:56;;;;;;;5.77;5.27;;;;;;;18.94;89.85;94536.38;4992959;28;20196;-78
2022/09/11 04:41:24;;;;;;;5.93;5.43;;;;;;;18.70;89.34;94501.41;4993176;28;20190;-78
2022/09/11 04:43:57;;;;;;;7.03;5.30;;;;;;;18.93;89.97;94542.56;4993186;28;20275;-77
2022/09/11 04:46:24;;;;;;;10.53;5.90;;;;;;;18.97;89.63;94545.56;4992924;28;20284;-80
2022/09/11 04:48:58;;;;;;;6.30;5.70;;;;;;;19.00;89.51;94545.19;4993287;28;20213;-77
2022/09/11 04:51:26;;;;;;;7.00;5.17;;;;;;;19.03;89.16;94547.38;4975683;28;20726;-78
2022/09/11 04:53:56;;;;;;;6.90;5.40;;;;;;;19.02;88.72;94538.00;4993250;28;20200;-77
2022/09/11 04:56:25;;;;;;;5.87;5.30;;;;;;;19.10;88.90;94550.00;4992207;28;20199;-78
2022/09/11 04:58:54;;;;;;;5.63;5.07;;;;;;;19.09;88.77;94553.59;4992905;28;20185;-78
2022/09/11 05:01:22;;;;;;;5.97;5.47;;;;;;;19.12;88.77;94548.00;4992697;28;20272;-77
2022/09/11 05:03:49;;;;;;;7.30;5.20;;;;;;;19.19;88.78;94544.44;4992477;28;20263;-77
2022/09/11 05:06:16;;;;;;;8.87;6.43;;;;;;;19.27;89.05;94548.66;4992048;28;20197;-78
2022/09/11 05:08:44;;;;;;;6.77;6.03;;;;;;;19.32;88.69;94528.13;4991421;28;20204;-80
2022/09/11 05:11:13;;;;;;;8.93;6.47;;;;;;;19.46;88.67;94550.50;4992276;28;20598;-77
2022/09/11 05:13:40;;;;;;;7.67;6.30;;;;;;;19.72;87.42;94546.41;4992464;28;20284;-78
2022/09/11 05:16:09;;;;;;;8.17;6.67;;;;;;;19.94;86.81;94544.41;4992037;28;20228;-78
2022/09/11 05:18:38;;;;;;;8.07;6.63;;;;;;;19.69;86.57;94498.31;4992292;28;20200;-78
2022/09/11 05:21:09;;;;;;;12.13;7.60;;;;;;;20.06;86.25;94535.03;4992152;28;20201;-79
2022/09/11 05:23:36;;;;;;;9.70;6.87;;;;;;;20.25;85.94;94544.66;4992238;28;20201;-77
2022/09/11 05:26:05;;;;;;;9.80;6.90;;;;;;;20.37;85.59;94546.63;4992269;28;20201;-78
2022/09/11 05:28:33;;;;;;;8.10;6.43;;;;;;;20.58;84.55;94550.81;4992395;28;20197;-77
2022/09/11 05:31:01;;;;;;;7.28;6.45;;;;;;;20.65;83.18;94547.22;4992061;28;20225;-78
2022/09/11 05:33:28;;;;;;;6.25;5.65;;;;;;;20.85;82.86;94546.34;4992298;28;20193;-78
2022/09/11 05:36:04;;;;;;;10.02;6.38;;;;;;;20.97;81.89;94545.50;4992696;28;20192;-77
2022/09/11 05:38:31;;;;;;;7.47;6.43;;;;;;;21.13;81.32;94536.47;4992410;28;20591;-78
2022/09/11 05:40:58;;;;;;;6.03;5.43;;;;;;;21.17;80.24;94539.44;4992549;28;20185;-79
2022/09/11 05:43:25;;;;;;;7.30;5.60;;;;;;;21.37;80.53;94536.75;4992560;28;20688;-77
2022/09/11 05:45:55;;;;;;;7.85;6.05;;;;;;;21.56;79.21;94540.28;4992052;28;20200;-79
2022/09/11 05:48:22;;;;;;;9.38;5.55;;;;;;;21.28;78.39;94491.97;4991825;28;20197;-77
2022/09/11 05:50:53;;;;;;;11.07;6.05;;;;;;;21.41;77.86;94496.31;5011477;28;20225;-78
2022/09/11 05:53:21;;;;;;;7.60;5.75;;;;;;;21.85;76.83;94544.91;5012794;28;20220;-78
2022/09/11 05:55:48;;;;;;;7.68;6.95;;;;;;;21.92;76.92;94542.25;5014239;28;20173;-77
2022/09/11 05:58:16;;;;;;;13.35;7.13;;;;;;;21.83;77.24;94531.28;4998491;28;20251;-78
2022/09/11 06:00:45;;;;;;;6.88;6.25;;;;;;;22.02;78.10;94542.56;4993176;28;20276;-78
2022/09/11 06:03:12;;;;;;;8.57;6.88;;;;;;;22.18;77.47;94552.50;4992835;28;20185;-78
2022/09/11 06:05:39;;;;;;;8.57;6.53;;;;;;;22.26;76.06;94541.00;4991660;28;20193;-77
2022/09/11 06:08:06;;;;;;;7.85;6.55;;;;;;;22.47;76.06;94550.25;4991968;28;20192;-77
2022/09/11 06:10:34;;;;;;;7.97;7.30;;;;;;;22.54;75.15;94553.59;4991786;28;20315;-78
2022/09/11 06:13:01;;;;;;;12.02;7.45;;;;;;;22.66;74.67;94562.28;4991582;28;20193;-78
2022/09/11 06:15:28;;;;;;;7.80;6.68;;;;;;;22.78;75.87;94560.56;4991493;28;20228;-79
2022/09/11 06:17:55;;;;;;;8.63;7.72;;;;;;;22.97;74.80;94569.25;4991211;28;20200;-80
2022/09/11 06:20:22;;;;;;;9.20;8.18;;;;;;;23.04;73.18;94563.94;4990661;28;20688;-77
2022/09/11 06:22:49;;;;;;;9.50;8.40;;;;;;;23.12;73.06;94571.47;4991265;28;20199;-78
2022/09/11 06:25:16;;;;;;;8.40;7.65;;;;;;;23.28;72.89;94577.91;4990953;28;20348;-77
2022/09/11 06:27:44;;;;;;;8.60;7.90;;;;;;;23.47;73.35;94571.66;4991110;28;20641;-78
2022/09/11 06:30:12;;;;;;;8.48;7.65;;;;;;;23.64;71.83;94569.22;4991537;28;20205;-78
2022/09/11 06:32:40;;;;;;;10.43;7.50;;;;;;;23.51;71.16;94533.63;4991252;28;20649;-78
2022/09/11 06:35:07;;;;;;;12.48;8.45;;;;;;;23.89;70.11;94566.50;4991560;28;20215;-80
2022/09/11 06:37:35;;;;;;;9.38;8.07;;;;;;;23.77;70.46;94539.53;4991240;28;20197;-78
2022/09/11 06:40:02;;;;;;;8.45;7.55;;;;;;;24.15;69.99;94572.34;4991493;28;20275;-77
2022/09/11 06:42:29;;;;;;;9.77;8.57;;;;;;;24.32;68.72;94580.34;4991732;28;20578;-78
2022/09/11 06:44:58;;;;;;;8.27;7.03;;;;;;;24.43;69.06;94582.19;4991990;28;20284;-79
2022/09/11 06:47:24;;;;;;;8.88;8.07;;;;;;;24.46;67.55;94582.53;4991397;28;20649;-77
2022/09/11 06:49:51;;;;;;;8.93;7.93;;;;;;;24.49;68.52;94563.78;4991261;28;20573;-79
2022/09/11 06:52:18;;;;;;;8.82;7.93;;;;;;;24.70;67.02;94575.50;4991800;28;20714;-78
2022/09/11 06:54:45;;;;;;;7.85;7.15;;;;;;;24.83;66.88;94577.06;4990671;28;20192;-78
2022/09/11 06:57:12;;;;;;;7.97;7.20;;;;;;;24.72;66.50;94581.28;4991454;28;20200;-78
2022/09/11 06:59:39;;;;;;;11.70;7.55;;;;;;;24.75;67.11;94561.72;4991314;28;20208;-79
2022/09/11 07:02:08;;;;;;;7.95;6.68;;;;;;;24.87;66.34;94572.16;4991244;28;20308;-78
2022/09/11 07:04:35;;;;;;;8.15;6.95;;;;;;;24.84;66.34;94570.03;4990664;28;20193;-78
2022/09/11 07:07:05;;;;;;;9.95;6.68;;;;;;;24.97;65.98;94575.00;4990798;28;20201;-78
2022/09/11 07:09:31;;;;;;;7.22;6.05;;;;;;;25.09;66.38;94577.66;4990852;28;20236;-79
2022/09/11 07:11:58;;;;;;;11.27;6.70;;;;;;;25.06;64.48;94568.41;4991686;28;20233;-78
2022/09/11 07:14:25;;;;;;;7.40;6.30;;;;;;;25.26;64.46;94574.06;4992495;28;20192;-79
2022/09/11 07:16:53;;;;;;;6.53;6.03;;;;;;;25.34;64.43;94574.72;4991043;28;20229;-79
2022/09/11 07:19:23;;;;;;;6.95;6.28;;;;;;;25.32;62.28;94577.59;4990552;28;20644;-78
2022/09/11 07:21:50;;;;;;;6.35;5.85;;;;;;;25.30;61.19;94568.34;4989972;28;20189;-79
2022/09/11 07:24:17;;;;;;;7.90;6.85;;;;;;;25.34;62.38;94585.19;4990139;28;20678;-79
2022/09/11 07:26:44;;;;;;;7.43;6.57;;;;;;;25.36;62.25;94577.91;4989835;28;20197;-79
2022/09/11 07:29:12;;;;;;;7.10;6.47;;;;;;;25.27;60.74;94574.88;4990273;28;20708;-77
2022/09/11 07:31:40;;;;;;;8.18;7.32;;;;;;;25.24;59.56;94565.66;4988916;28;20221;-77
2022/09/11 07:34:06;;;;;;;7.28;6.68;;;;;;;25.05;61.00;94552.94;4989980;28;20191;-77
2022/09/11 07:36:36;;;;;;;6.80;6.20;;;;;;;25.18;60.35;94568.41;4989849;28;20189;-77
2022/09/11 07:39:04;;;;;;;8.63;7.72;;;;;;;25.12;61.08;94564.09;4990301;28;20284;-79
2022/09/11 07:41:31;;;;;;;8.07;7.38;;;;;;;25.19;59.89;94564.75;4991952;28;20295;-79
2022/09/11 07:43:59;;;;;;;7.88;7.18;;;;;;;25.12;60.53;94562.25;4990334;28;20661;-80
2022/09/11 07:46:28;;;;;;;7.57;6.88;;;;;;;25.27;60.00;94559.16;4990171;28;20189;-80
2022/09/11 07:48:55;;;;;;;7.82;6.22;;;;;;;25.07;58.87;94541.19;4989993;28;20192;-79
2022/09/11 07:51:22;;;;;;;8.13;7.32;;;;;;;25.20;56.70;94564.50;4989783;28;20232;-79
2022/09/11 07:53:53;;;;;;;10.00;6.70;;;;;;;25.15;56.41;94567.03;4989782;28;20192;-78
2022/09/11 07:56:22;;;;;;;7.30;6.70;;;;;;;25.02;58.03;94568.06;4989693;28;20189;-80
2022/09/11 07:58:48;;;;;;;8.38;7.45;;;;;;;24.75;58.93;94530.34;4989309;28;20685;-80
2022/09/11 08:01:17;;;;;;;8.52;7.80;;;;;;;25.08;59.51;94562.91;4989510;28;20207;-78
2022/09/11 08:03:45;;;;;;;8.57;7.30;;;;;;;25.09;58.93;94564.56;4989439;28;20204;-77
2022/09/11 08:06:13;;;;;;;8.65;7.85;;;;;;;24.98;58.16;94548.59;4989706;28;20196;-78
2022/09/11 08:08:40;;;;;;;8.38;7.07;;;;;;;25.11;58.95;94557.25;4989467;28;20196;-79
2022/09/11 08:11:11;;;;;;;8.55;7.82;;;;;;;25.23;58.37;94550.19;4989725;28;20228;-78
2022/09/11 08:13:38;;;;;;;8.57;7.88;;;;;;;25.24;58.65;94551.75;4989387;28;20197;-78
2022/09/11 08:16:05;;;;;;;8.55;7.65;;;;;;;25.25;59.04;94548.91;4989573;28;20228;-79
2022/09/11 08:18:34;;;;;;;8.68;7.78;;;;;;;25.32;58.14;94538.31;4989262;28;20212;-78
2022/09/11 08:21:03;;;;;;;8.90;8.00;;;;;;;25.32;58.00;94542.75;4989434;28;20256;-77
2022/09/11 08:23:31;;;;;;;8.18;7.28;;;;;;;25.36;58.84;94534.19;4989295;28;20272;-78
2022/09/11 08:26:04;;;;;;;8.40;7.60;;;;;;;25.40;58.54;94540.56;4989844;28;20220;-78
2022/09/11 08:28:33;;;;;;;8.68;7.70;;;;;;;25.21;58.52;94523.44;4989409;28;20576;-79
2022/09/11 08:31:00;;;;;;;8.27;7.53;;;;;;;25.40;58.95;94539.78;4990047;28;20217;-79
2022/09/11 08:33:27;;;;;;;9.63;8.57;;;;;;;25.28;59.31;94542.41;4989568;28;20220;-79
2022/09/11 08:35:55;;;;;;;8.13;7.25;;;;;;;25.48;57.88;94537.56;4989468;28;20657;-78
2022/09/11 08:38:21;;;;;;;8.88;8.05;;;;;;;25.49;58.91;94535.75;4989321;28;20292;-80
2022/09/11 08:40:48;;;;;;;9.82;8.07;;;;;;;25.50;59.01;94542.56;4989365;28;20260;-80
2022/09/11 08:43:22;;;;;;;8.55;7.75;;;;;;;25.58;58.99;94539.56;4991053;28;20189;-79
2022/09/11 08:45:55;;;;;;;9.07;8.18;;;;;;;25.62;58.44;94532.06;4993658;28;20190;-77
2022/09/11 08:48:30;;;;;;;9.25;8.45;;;;;;;25.69;59.05;94523.03;4993314;28;20713;-79
2022/09/11 08:50:57;;;;;;;8.30;7.50;;;;;;;25.72;57.17;94535.63;4992731;28;20240;-80
2022/09/11 08:53:32;;;;;;;8.40;7.70;;;;;;;25.79;58.00;94538.16;4993073;28;20193;-79
2022/09/11 08:56:05;;;;;;;8.57;7.55;;;;;;;25.87;57.06;94516.00;4992749;28;20288;-79
2022/09/11 08:58:38;;;;;;;8.02;7.32;;;;;;;25.97;56.11;94516.16;4992398;28;20224;-79
2022/09/11 09:01:16;;;;;;;8.18;7.45;;;;;;;26.13;55.04;94519.84;4992698;28;20207;-78
2022/09/11 09:03:55;;;;;;;7.97;7.18;;;;;;;25.94;54.26;94483.34;4992334;28;20200;-78
2022/09/11 09:06:43;;;;;;;7.70;7.10;;;;;;;26.26;53.88;94524.75;4992482;28;20199;-79
2022/09/11 09:09:20;;;;;;;12.32;7.30;;;;;;;26.31;54.33;94510.91;4992378;28;20197;-78
2022/09/11 09:11:56;;;;;;;8.02;7.43;;;;;;;26.37;52.76;94505.50;4992036;28;20659;-78
2022/09/11 09:14:40;;;;;;;7.88;7.28;;;;;;;26.36;53.33;94517.03;4992472;28;20271;-77
2022/09/11 09:17:13;;;;;;;8.75;7.93;;;;;;;25.90;52.79;94447.38;4972554;28;20197;-77
2022/09/11 09:19:45;;;;;;;7.50;6.82;;;;;;;26.36;53.29;94511.00;4973202;28;20197;-80
2022/09/11 09:22:18;;;;;;;8.25;7.57;;;;;;;26.41;53.64;94501.34;4972899;28;20658;-77
2022/09/11 09:24:49;;;;;;;8.43;7.63;;;;;;;26.40;52.59;94491.13;4972877;28;20201;-78
2022/09/11 09:27:19;;;;;;;8.77;7.97;;;;;;;26.16;52.55;94451.97;4972773;28;20690;-77
2022/09/11 09:29:51;;;;;;;8.13;7.43;;;;;;;26.14;51.12;94450.63;4972848;28;20197;-77
2022/09/11 09:32:26;;;;;;;8.40;7.60;;;;;;;26.38;50.69;94498.41;4972746;28;20233;-78
2022/09/11 09:35:03;;;;;;;8.57;7.80;;;;;;;25.92;51.40;94445.34;4972891;28;20230;-79
2022/09/11 09:37:29;;;;;;;8.40;7.55;;;;;;;26.27;51.89;94497.50;4972693;28;20221;-77
2022/09/11 09:39:57;;;;;;;7.68;6.93;;;;;;;25.98;51.50;94442.53;4972524;28;20285;-79
2022/09/11 09:42:46;;;;;;;7.80;7.07;;;;;;;26.06;50.61;94477.25;4973014;28;20189;-78
2022/09/11 09:45:27;;;;;;;7.30;6.80;;;;;;;26.14;50.86;94485.50;4972979;28;20292;-79
2022/09/11 09:47:55;;;;;;;7.88;7.28;;;;;;;26.14;50.37;94479.47;4973235;28;20654;-77
2022/09/11 09:50:28;;;;;;;7.15;6.53;;;;;;;25.74;50.76;94425.38;4973309;28;20249;-78
2022/09/11 09:53:03;;;;;;;7.45;6.75;;;;;;;25.93;50.44;94457.41;4972783;28;20213;-78
2022/09/11 09:55:32;;;;;;;6.97;6.32;;;;;;;25.67;50.35;94425.53;4971790;28;20318;-79
2022/09/11 09:57:59;;;;;;;7.00;6.43;;;;;;;26.04;50.36;94493.22;4972536;28;20194;-79
2022/09/11 10:00:30;;;;;;;6.80;6.20;;;;;;;26.06;50.59;94488.53;4971789;28;20595;-78
2022/09/11 10:02:58;;;;;;;7.07;6.47;;;;;;;25.90;51.07;94479.63;4972400;28;20217;-78
2022/09/11 10:05:28;;;;;;;6.47;5.97;;;;;;;25.88;50.08;94475.66;4972170;28;20185;-78
2022/09/11 10:07:57;;;;;;;7.00;6.40;;;;;;;25.84;50.93;94472.72;4972498;28;20209;-77
2022/09/11 10:10:28;;;;;;;6.13;5.63;;;;;;;25.83;50.95;94473.75;4972223;28;20194;-79
2022/09/11 10:12:58;;;;;;;7.10;6.60;;;;;;;25.85;51.04;94458.59;4972147;28;20232;-78
2022/09/11 10:15:26;;;;;;;7.75;7.03;;;;;;;25.84;51.84;94454.38;4976235;28;20260;-79
2022/09/11 10:17:54;;;;;;;6.93;6.32;;;;;;;25.88;51.61;94447.63;4991008;28;20388;-77
2022/09/11 10:20:28;;;;;;;8.00;7.20;;;;;;;25.70;51.43;94435.53;4991122;28;20215;-78
2022/09/11 10:22:55;;;;;;;6.90;6.15;;;;;;;25.98;50.47;94470.56;4991194;28;20286;-78
2022/09/11 10:25:25;;;;;;;6.95;6.35;;;;;;;25.98;50.70;94467.94;4991302;28;20196;-78
2022/09/11 10:28:02;;;;;;;8.18;7.47;;;;;;;25.85;50.51;94449.94;4991427;28;20197;-78
2022/09/11 10:30:32;;;;;;;6.88;6.38;;;;;;;25.90;51.60;94455.25;4991119;28;20538;-79
2022/09/11 10:33:02;;;;;;;7.25;6.57;;;;;;;25.97;52.09;94466.38;4990864;28;20696;-78
2022/09/11 10:35:32;;;;;;;6.20;5.70;;;;;;;25.92;51.26;94463.69;4990516;28;20189;-77
2022/09/11 10:38:16;;;;;;;6.45;5.95;;;;;;;26.00;51.09;94458.84;4990764;28;20656;-78
2022/09/11 10:40:57;;;;;;;6.10;5.50;;;;;;;26.11;51.31;94451.91;4988683;28;20602;-77
2022/09/11 10:43:32;;;;;;;7.00;6.40;;;;;;;26.20;51.14;94452.28;4990968;28;20220;-78
2022/09/11 10:46:04;;;;;;;9.52;6.00;;;;;;;26.02;51.63;94411.41;4990847;28;20192;-79
2022/09/11 10:48:32;;;;;;;7.10;6.50;;;;;;;26.34;52.49;94450.13;4991079;28;20630;-77
2022/09/11 10:51:12;;;;;;;6.28;5.78;;;;;;;26.41;52.03;94441.03;4990625;28;20188;-78
2022/09/11 10:53:57;;;;;;;6.53;5.78;;;;;;;26.36;52.40;94420.00;4990665;28;20238;-77
2022/09/11 10:56:26;;;;;;;5.57;5.03;;;;;;;26.47;49.13;94450.63;4990657;28;20205;-79
2022/09/11 10:58:58;;;;;;;6.68;6.03;;;;;;;26.30;49.79;94431.47;4990999;28;20201;-78
2022/09/11 11:01:25;;;;;;;7.35;6.57;;;;;;;25.94;50.36;94404.75;4990625;28;20556;-80
2022/09/11 11:03:55;;;;;;;7.45;6.43;;;;;;;25.92;50.93;94403.41;4990320;28;20197;-78
2022/09/11 11:06:38;;;;;;;6.22;5.72;;;;;;;25.95;51.38;94423.88;4990611;28;20204;-79
2022/09/11 11:09:30;;;;;;;7.63;6.68;;;;;;;25.82;51.47;94411.09;4990189;28;20205;-78
2022/09/11 11:12:17;;;;;;;6.60;6.10;;;;;;;25.97;52.72;94440.97;4990021;28;20703;-78
2022/09/11 11:15:07;;;;;;;6.22;5.72;;;;;;;25.83;50.83;94412.72;4990293;28;20402;-79
2022/09/11 11:17:41;;;;;;;7.32;6.70;;;;;;;25.63;51.44;94360.78;4970806;28;20190;-77
2022/09/11 11:20:30;;;;;;;6.85;6.25;;;;;;;25.75;51.89;94385.84;4970771;28;20190;-77
2022/09/11 11:23:36;;;;;;;6.75;6.13;;;;;;;26.11;52.90;94419.66;4970922;28;20189;-79
2022/09/11 11:26:24;;;;;;;6.60;6.10;;;;;;;25.97;51.23;94388.53;4910775;29;20203;-77
2022/09/11 11:29:07;;;;;;;6.38;5.78;;;;;;;26.11;50.99;94394.22;4911243;29;20260;-78
2022/09/11 11:31:50;;;;;;;6.95;6.45;;;;;;;25.76;50.82;94335.06;4910923;29;20207;-79
2022/09/11 11:34:37;;;;;;;6.40;5.75;;;;;;;26.25;51.70;94402.53;4911122;29;20794;-80
2022/09/11 11:37:10;;;;;;;6.93;6.30;;;;;;;26.31;50.05;94408.66;4911149;29;20199;-79
2022/09/11 11:39:47;;;;;;;6.60;6.00;;;;;;;26.25;50.18;94400.75;4910620;29;20319;-78
2022/09/11 11:42:20;;;;;;;6.50;6.00;;;;;;;26.14;50.14;94392.97;4911406;29;20686;-76
2022/09/11 11:44:55;;;;;;;10.05;6.68;;;;;;;26.23;50.80;94394.94;4911187;29;20583;-77
2022/09/11 11:47:30;;;;;;;7.25;5.93;;;;;;;26.20;50.50;94392.78;4911168;29;20207;-77
2022/09/11 11:50:05;;;;;;;7.35;6.60;;;;;;;25.72;50.88;94314.81;4911137;29;20211;-77